Terminal Aerodrome Forecast
Issued by NWS Austin/San Antonio, TX

Home | Current Version | Previous Version | Text Only | Print | Product List | Glossary On
Versions: 1 2 3 4 5 6 7 8 9 10 11 12 13 14 15 16 17 18 19 20 21
000
FTUS44 KEWX 040541
TAFAUS
TAF
KAUS 040541Z 0406/0512 01010KT P6SM OVC008
     FM040700 36010KT P6SM OVC004
     FM041000 36012KT 5SM -SHRA OVC004
     FM041800 01012KT 5SM BR OVC008
     FM042100 01012KT P6SM OVC008 PROB30 0421/0503 -SHRA OVC004
     FM050300 01012KT 5SM BR OVC008 PROB30 0503/0509 -SHRA OVC004=

USA.gov is the U.S. government's official web portal to all federal, state and local government web resources and services.